createdAt,value
2017-02-16T00:08:00.809Z,1023.7
2017-02-16T00:18:14.429Z,1023.6
2017-02-16T00:28:28.785Z,1023.6
2017-02-16T00:38:42.260Z,1023.6
2017-02-16T00:48:55.995Z,1023.6
2017-02-16T00:59:10.201Z,1023.6
2017-02-16T01:09:23.506Z,1023.7
2017-02-16T01:19:40.480Z,1023.7
2017-02-16T01:29:51.801Z,1023.9
2017-02-16T01:40:06.023Z,1023.9
2017-02-16T01:50:19.194Z,1023.8
2017-02-16T02:00:33.154Z,1023.7
2017-02-16T02:10:46.953Z,1023.8
2017-02-16T02:21:00.353Z,1023.7
2017-02-16T02:31:15.446Z,1023.6
2017-02-16T02:41:27.572Z,1023.6
2017-02-16T02:51:41.817Z,1023.5
2017-02-16T03:01:56.891Z,1023.5
2017-02-16T03:12:11.859Z,1023.5
2017-02-16T03:22:26.801Z,1023.4
2017-02-16T03:32:40.128Z,1023.4
2017-02-16T03:42:56.863Z,1023.4
2017-02-16T03:53:11.935Z,1023.4
2017-02-16T04:03:21.414Z,1023.4
2017-02-16T04:13:34.944Z,1023.4
2017-02-16T04:23:49.298Z,1023.4
2017-02-16T04:34:16.886Z,1023.3
2017-02-16T04:44:17.365Z,1023.3
2017-02-16T04:54:31.251Z,1023.3
2017-02-16T05:04:45.564Z,1023.3
2017-02-16T05:15:00.205Z,1023.3
2017-02-16T05:25:13.640Z,1023.2
2017-02-16T05:35:28.537Z,1023.2
2017-02-16T05:45:42.398Z,1023.1
2017-02-16T05:55:59.646Z,1023.1
2017-02-16T06:06:10.474Z,1023.1
2017-02-16T06:16:24.251Z,1023.1
2017-02-16T06:26:38.822Z,1023.1
2017-02-16T06:36:52.111Z,1023.1
2017-02-16T06:47:05.150Z,1023.1
2017-02-16T06:57:18.852Z,1023.1
2017-02-16T07:07:32.487Z,1023.1
2017-02-16T07:17:47.108Z,1023.2
2017-02-16T07:28:00.587Z,1023.2
2017-02-16T07:38:15.124Z,1023.2
2017-02-16T07:48:29.042Z,1023.3
2017-02-16T07:58:42.945Z,1023.2
2017-02-16T08:08:57.410Z,1023.2
2017-02-16T08:19:11.599Z,1023.2
2017-02-16T08:29:26.473Z,1023.2
2017-02-16T08:39:40.748Z,1023.1
2017-02-16T08:49:55.677Z,1023.1
2017-02-16T09:00:16.225Z,1023.2
2017-02-16T09:10:23.091Z,1023.1
2017-02-16T09:20:37.915Z,1023.1
2017-02-16T09:30:52.989Z,1023
2017-02-16T09:41:06.355Z,1023
2017-02-16T09:51:20.508Z,1023.1
2017-02-16T10:01:34.274Z,1023
2017-02-16T10:11:48.153Z,1023
2017-02-16T10:22:01.750Z,1023
2017-02-16T10:32:15.437Z,1023
2017-02-16T10:42:30.126Z,1022.9
2017-02-16T10:52:43.811Z,1022.8
2017-02-16T11:02:58.610Z,1022.7
2017-02-16T11:13:13.346Z,1022.7
2017-02-16T11:23:27.214Z,1022.5
2017-02-16T11:33:41.731Z,1022.3
2017-02-16T11:43:55.937Z,1022.2
2017-02-16T11:54:10.625Z,1022.1
2017-02-16T12:04:23.906Z,1021.9
2017-02-16T12:14:43.894Z,1021.9
2017-02-16T12:24:52.631Z,1021.8
2017-02-16T12:35:07.345Z,1021.8
2017-02-16T12:45:21.684Z,1021.7
2017-02-16T12:55:44.623Z,1021.6
2017-02-16T13:05:50.012Z,1021.5
2017-02-16T13:16:09.155Z,1021.3
2017-02-16T13:26:18.795Z,1021.2
2017-02-16T13:36:33.688Z,1021
2017-02-16T13:46:48.664Z,1020.8
2017-02-16T13:57:02.419Z,1020.6
2017-02-16T14:07:17.467Z,1020.7
2017-02-16T14:17:32.440Z,1020.3
2017-02-16T14:27:46.107Z,1020.3
2017-02-16T14:38:00.041Z,1020.3
2017-02-16T14:48:15.032Z,1020.1
2017-02-16T14:58:28.861Z,1020
2017-02-16T15:08:42.052Z,1020
2017-02-16T15:18:55.337Z,1019.8
2017-02-16T15:29:10.793Z,1019.9
2017-02-16T15:39:24.428Z,1020
2017-02-16T15:49:38.830Z,1019.9
2017-02-16T15:59:53.482Z,1020
2017-02-16T16:10:07.078Z,1020
2017-02-16T16:20:21.920Z,1020
2017-02-16T16:30:35.837Z,1020
2017-02-16T16:40:50.428Z,1020
2017-02-16T16:51:04.279Z,1020.1
2017-02-16T17:01:17.847Z,1020.2
2017-02-16T17:11:31.228Z,1020.2
2017-02-16T17:21:45.047Z,1020.1
2017-02-16T17:31:59.278Z,1020
2017-02-16T17:42:12.436Z,1020
2017-02-16T17:52:26.974Z,1020
2017-02-16T18:02:41.479Z,1019.8
2017-02-16T18:12:55.027Z,1019.8
2017-02-16T18:23:10.238Z,1019.7
2017-02-16T18:33:35.500Z,1019.5
2017-02-16T18:43:38.815Z,1019.5
2017-02-16T18:54:00.056Z,1019.6
2017-02-16T19:04:07.577Z,1019.5
2017-02-16T19:14:21.679Z,1019.5
2017-02-16T19:24:36.150Z,1019.5
2017-02-16T19:34:49.938Z,1019.5
2017-02-16T19:45:11.484Z,1019.5
2017-02-16T19:55:17.448Z,1019.4
2017-02-16T20:05:31.606Z,1019.4
2017-02-16T20:15:46.119Z,1019.4
2017-02-16T20:26:00.699Z,1019.4
2017-02-16T20:36:14.467Z,1019.3
2017-02-16T20:46:28.323Z,1019.3
2017-02-16T20:56:47.766Z,1019.2
2017-02-16T21:06:58.311Z,1019.2
2017-02-16T21:17:10.091Z,1019.1
2017-02-16T21:27:24.288Z,1019.1
2017-02-16T21:37:39.083Z,1019.2
2017-02-16T21:47:55.285Z,1019.2
2017-02-16T21:58:06.891Z,1019.1
2017-02-16T22:08:21.173Z,1019
2017-02-16T22:18:51.794Z,1019
2017-02-16T22:28:53.524Z,1018.9
2017-02-16T22:39:03.912Z,1018.9
2017-02-16T22:49:18.506Z,1018.8
2017-02-16T22:59:32.571Z,1018.7
2017-02-16T23:09:46.667Z,1018.7
2017-02-16T23:19:59.840Z,1018.6
2017-02-16T23:30:13.446Z,1018.4
2017-02-16T23:40:27.255Z,1018.5
2017-02-16T23:50:41.998Z,1018.3
